Time;durP1;ratioP1;P1;durP2;ratioP2;P2;SDS_P1;SDS_P2;PMS_P1;PMS_P2;Temp;Humidity;BMP_temperature;BMP_pressure;BME280_temperature;BME280_humidity;BME280_pressure;Samples;Min_cycle;Max_cycle;Signal;HPM_P1;HPM_P2
2022/05/06 00:00:51;;;;;;;8.65;7.85;;;22.30;78.50;;;;;;5917367;29;89094;-69
2022/05/06 00:03:53;;;;;;;9.05;8.18;;;22.30;78.60;;;;;;5924406;29;89132;-70
2022/05/06 00:06:55;;;;;;;8.73;7.93;;;22.30;78.50;;;;;;5903784;29;88426;-68
2022/05/06 00:09:57;;;;;;;8.65;7.85;;;22.30;78.60;;;;;;5913144;29;89285;-69
2022/05/06 00:13:01;;;;;;;8.32;7.53;;;22.30;78.60;;;;;;5925544;29;89447;-70
2022/05/06 00:16:03;;;;;;;8.43;7.63;;;22.30;78.50;;;;;;5907634;29;90153;-69
2022/05/06 00:19:05;;;;;;;8.10;7.35;;;22.20;78.40;;;;;;5919729;29;89163;-68
2022/05/06 00:22:08;;;;;;;8.38;7.57;;;22.30;78.40;;;;;;5924669;29;89409;-70
2022/05/06 00:25:10;;;;;;;8.40;7.60;;;22.30;78.40;;;;;;5936103;29;88312;-70
2022/05/06 00:28:14;;;;;;;8.18;7.38;;;22.20;78.30;;;;;;5925248;29;87996;-69
2022/05/06 00:31:15;;;;;;;8.15;7.45;;;22.30;78.40;;;;;;5932679;29;89189;-69
2022/05/06 00:34:17;;;;;;;8.07;7.28;;;22.20;78.40;;;;;;5925476;29;88003;-68
2022/05/06 00:37:19;;;;;;;8.60;7.50;;;22.30;78.40;;;;;;5921308;29;88723;-70
2022/05/06 00:40:21;;;;;;;8.13;7.40;;;22.30;78.40;;;;;;5923229;29;89109;-70
2022/05/06 00:43:25;;;;;;;8.00;7.20;;;22.20;78.30;;;;;;5913967;29;89138;-69
2022/05/06 00:46:27;;;;;;;8.25;7.45;;;22.30;78.30;;;;;;5913638;29;89984;-70
2022/05/06 00:49:29;;;;;;;7.72;7.03;;;22.30;78.40;;;;;;5902502;29;89094;-68
2022/05/06 00:52:31;;;;;;;7.88;7.18;;;22.20;78.30;;;;;;5928721;29;89375;-70
2022/05/06 00:55:34;;;;;;;8.40;7.63;;;22.20;78.30;;;;;;5925799;29;88014;-69
2022/05/06 00:58:37;;;;;;;7.97;7.18;;;22.30;78.40;;;;;;5916456;29;89150;-69
2022/05/06 01:01:39;;;;;;;7.82;7.03;;;22.20;78.30;;;;;;5914193;29;89115;-69
2022/05/06 01:04:41;;;;;;;8.00;7.30;;;22.20;78.40;;;;;;5914889;29;88179;-69
2022/05/06 01:07:45;;;;;;;7.82;7.13;;;22.20;78.30;;;;;;5915504;29;88684;-69
2022/05/06 01:10:47;;;;;;;7.53;6.82;;;22.20;78.30;;;;;;5906293;29;87727;-69
2022/05/06 01:13:55;;;;;;;7.78;7.07;;;22.30;78.30;;;;;;5912095;29;88005;-69
2022/05/06 01:16:57;;;;;;;8.10;7.30;;;22.20;78.30;;;;;;5916340;29;90157;-69
2022/05/06 01:19:59;;;;;;;7.75;7.03;;;22.30;78.30;;;;;;5903085;29;89207;-70
2022/05/06 01:23:02;;;;;;;7.70;7.00;;;22.20;78.30;;;;;;5913087;29;89233;-69
2022/05/06 01:26:04;;;;;;;7.47;6.78;;;22.20;78.30;;;;;;5911131;29;89149;-69
2022/05/06 01:29:07;;;;;;;7.20;6.60;;;22.30;78.30;;;;;;5926381;29;89367;-69
2022/05/06 01:32:09;;;;;;;7.65;6.95;;;22.30;78.30;;;;;;5929889;29;88980;-69
2022/05/06 01:35:12;;;;;;;7.40;6.68;;;22.20;78.30;;;;;;5911665;29;89076;-69
2022/05/06 01:38:21;;;;;;;7.40;6.70;;;22.20;78.30;;;;;;5924335;29;88371;-69
2022/05/06 01:41:26;;;;;;;7.25;6.65;;;22.20;78.30;;;;;;5921642;29;91292;-69
2022/05/06 01:44:32;;;;;;;7.28;6.60;;;22.20;78.30;;;;;;5915026;29;89159;-70
2022/05/06 01:47:36;;;;;;;6.65;6.05;;;22.20;78.30;;;;;;5923343;29;91390;-70
2022/05/06 01:50:39;;;;;;;6.78;6.18;;;22.20;78.30;;;;;;5923984;29;89033;-68
2022/05/06 01:53:44;;;;;;;7.13;6.50;;;22.20;78.30;;;;;;5913297;29;88998;-70
2022/05/06 01:56:47;;;;;;;7.15;6.53;;;22.20;78.10;;;;;;5913380;29;89223;-69
2022/05/06 01:59:49;;;;;;;7.47;6.78;;;22.20;78.10;;;;;;5913339;29;89018;-69
2022/05/06 02:02:51;;;;;;;6.10;5.60;;;22.20;78.20;;;;;;5908266;29;88137;-69
2022/05/06 02:05:52;;;;;;;6.65;6.05;;;22.20;78.10;;;;;;5911733;29;89117;-68
2022/05/06 02:08:56;;;;;;;6.35;5.75;;;22.20;78.10;;;;;;5912159;29;88587;-69
2022/05/06 02:11:57;;;;;;;6.05;5.45;;;22.20;78.10;;;;;;5923944;29;89185;-70
2022/05/06 02:14:59;;;;;;;6.38;5.80;;;22.20;78.10;;;;;;5912166;29;89171;-69
2022/05/06 02:18:02;;;;;;;6.78;6.18;;;22.20;78.00;;;;;;5922845;29;89858;-69
2022/05/06 02:21:04;;;;;;;6.78;6.18;;;22.20;78.10;;;;;;5912443;29;89248;-70
2022/05/06 02:24:07;;;;;;;6.70;6.10;;;22.20;78.00;;;;;;5923040;29;89073;-69
2022/05/06 02:27:12;;;;;;;7.07;6.38;;;22.20;78.10;;;;;;5923807;29;88969;-70
2022/05/06 02:33:33;;;;;;;6.90;6.20;;;22.20;78.10;;;;;;5923262;29;87465;-70
2022/05/06 02:36:35;;;;;;;6.60;6.00;;;22.20;78.10;;;;;;5911100;29;89148;-69
2022/05/06 02:39:38;;;;;;;7.32;6.63;;;22.20;78.10;;;;;;5927024;29;87322;-69
2022/05/06 02:42:41;;;;;;;6.75;6.10;;;22.20;78.10;;;;;;5915355;29;89132;-69
2022/05/06 02:45:43;;;;;;;6.88;6.25;;;22.20;78.10;;;;;;5915650;29;89277;-70
2022/05/06 02:48:45;;;;;;;7.00;6.40;;;22.20;78.10;;;;;;5914744;29;90130;-70
2022/05/06 02:51:47;;;;;;;7.00;6.30;;;22.20;78.10;;;;;;5915899;29;89073;-69
2022/05/06 02:54:50;;;;;;;7.85;6.50;;;22.20;78.10;;;;;;5920610;29;89079;-69
2022/05/06 02:57:52;;;;;;;7.10;6.50;;;22.20;78.10;;;;;;5921864;29;89086;-70
2022/05/06 03:00:54;;;;;;;7.28;6.68;;;22.20;78.10;;;;;;5926761;29;89066;-69
2022/05/06 03:03:56;;;;;;;7.30;6.63;;;22.20;78.00;;;;;;5915063;29;89208;-69
2022/05/06 03:06:58;;;;;;;6.88;6.28;;;22.20;78.00;;;;;;5914607;29;89169;-70
2022/05/06 03:10:02;;;;;;;7.13;6.53;;;22.20;78.00;;;;;;5915367;29;88412;-69
2022/05/06 03:13:03;;;;;;;7.60;6.90;;;22.20;78.00;;;;;;5927404;29;89265;-69
2022/05/06 03:16:05;;;;;;;7.57;6.88;;;22.20;78.00;;;;;;5918227;29;89179;-69
2022/05/06 03:19:08;;;;;;;7.22;6.53;;;22.20;77.90;;;;;;5917249;29;88926;-70
2022/05/06 03:22:10;;;;;;;7.43;6.72;;;22.20;78.10;;;;;;5911277;29;89111;-69
2022/05/06 03:25:14;;;;;;;7.43;6.82;;;22.10;78.00;;;;;;5920423;29;89108;-68
2022/05/06 03:28:16;;;;;;;7.78;7.07;;;22.20;78.10;;;;;;5916064;29;89091;-69
2022/05/06 03:31:18;;;;;;;7.60;6.90;;;22.10;78.00;;;;;;5937226;29;89077;-70
2022/05/06 03:34:21;;;;;;;7.30;6.60;;;22.20;78.10;;;;;;5905443;29;89071;-69
2022/05/06 03:37:23;;;;;;;7.03;6.43;;;22.20;78.10;;;;;;5916689;29;89748;-69
2022/05/06 03:40:26;;;;;;;7.30;6.60;;;22.20;78.10;;;;;;5911516;29;89547;-70
2022/05/06 03:43:28;;;;;;;8.10;7.30;;;22.20;78.10;;;;;;5914309;29;89131;-69
2022/05/06 03:46:30;;;;;;;7.32;6.68;;;22.20;78.10;;;;;;5926358;29;89111;-69
2022/05/06 03:49:33;;;;;;;7.50;6.80;;;22.20;78.00;;;;;;5921763;29;90062;-68
2022/05/06 03:52:34;;;;;;;7.60;6.90;;;22.20;77.90;;;;;;5904717;29;89342;-69
2022/05/06 03:55:37;;;;;;;6.97;6.38;;;22.20;77.90;;;;;;5916060;29;89067;-66
2022/05/06 03:58:39;;;;;;;7.30;6.60;;;22.20;77.90;;;;;;5903573;29;91530;-69
2022/05/06 04:01:41;;;;;;;7.80;7.10;;;22.20;77.90;;;;;;5915608;29;89391;-67
2022/05/06 04:04:43;;;;;;;7.55;6.85;;;22.20;77.90;;;;;;5915570;29;89124;-69
2022/05/06 04:07:45;;;;;;;8.10;7.40;;;22.20;77.90;;;;;;5915633;29;89033;-69
2022/05/06 04:10:49;;;;;;;7.57;6.88;;;22.20;77.90;;;;;;5915809;29;88420;-69
2022/05/06 04:13:51;;;;;;;7.68;6.97;;;22.30;77.90;;;;;;5908854;29;89132;-69
2022/05/06 04:16:53;;;;;;;7.60;6.90;;;22.20;77.80;;;;;;5917525;29;89180;-69
2022/05/06 04:23:33;;;;;;;7.43;6.72;;;22.20;77.90;;;;;;5878064;29;87825;-69
2022/05/06 04:26:36;;;;;;;7.80;7.07;;;22.20;77.90;;;;;;5873883;29;88961;-69
2022/05/06 04:29:39;;;;;;;7.43;6.72;;;22.20;77.90;;;;;;5924246;29;89483;-69
2022/05/06 04:32:41;;;;;;;7.32;6.63;;;22.20;77.90;;;;;;5926405;29;89223;-69
2022/05/06 04:35:43;;;;;;;7.60;6.90;;;22.20;77.90;;;;;;5917629;29;89152;-69
2022/05/06 04:38:45;;;;;;;7.20;6.50;;;22.20;78.00;;;;;;5920879;29;89175;-69
2022/05/06 04:41:49;;;;;;;7.45;6.75;;;22.20;77.90;;;;;;5920374;29;88321;-69
2022/05/06 04:44:54;;;;;;;7.18;6.50;;;22.20;77.90;;;;;;5918737;29;88022;-69
2022/05/06 04:47:56;;;;;;;7.00;6.40;;;22.20;77.90;;;;;;5922491;29;89000;-69
2022/05/06 04:50:58;;;;;;;7.55;6.85;;;22.20;77.90;;;;;;5916178;29;90088;-69
2022/05/06 04:54:00;;;;;;;7.45;6.75;;;22.20;77.80;;;;;;5912562;29;89143;-68
2022/05/06 04:57:03;;;;;;;7.05;6.45;;;22.20;78.40;;;;;;5905723;29;89112;-69
2022/05/06 05:00:24;;;;;;;8.07;6.70;;;22.20;78.90;;;;;;5902076;29;89437;-68
2022/05/06 05:03:26;;;;;;;8.70;6.50;;;22.20;78.90;;;;;;5913993;29;89215;-69
2022/05/06 05:06:30;;;;;;;7.32;6.63;;;22.30;80.00;;;;;;5912333;29;88926;-69
2022/05/06 05:09:32;;;;;;;7.20;6.50;;;22.30;80.50;;;;;;5901341;29;88134;-69
2022/05/06 05:12:35;;;;;;;6.82;6.13;;;22.30;80.50;;;;;;5905197;29;88332;-70
2022/05/06 05:15:37;;;;;;;7.07;6.38;;;22.30;80.50;;;;;;5904221;29;89200;-69
2022/05/06 05:18:40;;;;;;;7.03;6.32;;;22.30;80.40;;;;;;5903804;29;87921;-70
2022/05/06 05:21:42;;;;;;;8.18;6.75;;;22.30;80.30;;;;;;5905127;29;90212;-69
2022/05/06 05:24:44;;;;;;;18.02;9.13;;;22.30;80.20;;;;;;5911553;29;89414;-69
2022/05/06 05:27:47;;;;;;;22.90;10.55;;;22.30;80.90;;;;;;5927619;29;89043;-70
2022/05/06 05:30:49;;;;;;;20.02;10.35;;;22.30;80.80;;;;;;5924185;29;88005;-69
2022/05/06 05:33:52;;;;;;;21.42;10.57;;;22.30;81.10;;;;;;5931383;29;89083;-70
2022/05/06 05:36:54;;;;;;;19.45;9.57;;;22.30;81.30;;;;;;5923613;29;89023;-69
2022/05/06 05:39:56;;;;;;;16.27;9.55;;;22.30;81.10;;;;;;5906673;29;89078;-69
2022/05/06 05:42:59;;;;;;;15.77;9.18;;;22.30;80.80;;;;;;5927680;29;88373;-69
2022/05/06 05:49:21;;;;;;;24.40;10.07;;;22.30;80.40;;;;;;5905431;29;87076;-69
2022/05/06 05:52:23;;;;;;;29.17;11.95;;;22.20;80.40;;;;;;5917794;29;89994;-69
2022/05/06 05:55:25;;;;;;;35.00;12.77;;;22.30;81.00;;;;;;5919345;29;89190;-70
2022/05/06 05:58:28;;;;;;;44.50;17.10;;;22.30;81.50;;;;;;5906066;29;89455;-69
2022/05/06 06:01:30;;;;;;;38.60;15.50;;;22.30;82.40;;;;;;5918097;29;89147;-69
2022/05/06 06:04:32;;;;;;;32.22;12.77;;;22.30;82.50;;;;;;5906462;29;89080;-69
2022/05/06 06:07:34;;;;;;;26.35;12.32;;;22.30;82.20;;;;;;5900466;29;89121;-69
2022/05/06 06:10:36;;;;;;;24.25;11.75;;;22.40;82.00;;;;;;5900452;29;89118;-69
2022/05/06 06:13:40;;;;;;;24.30;11.68;;;22.40;81.70;;;;;;5904491;29;88326;-69
2022/05/06 06:16:42;;;;;;;22.02;10.32;;;22.40;81.50;;;;;;5910372;29;89049;-68
2022/05/06 06:19:44;;;;;;;19.23;10.45;;;22.40;81.30;;;;;;5926199;29;89182;-70
2022/05/06 06:22:46;;;;;;;17.25;9.48;;;22.40;81.10;;;;;;5913289;29;90182;-69
2022/05/06 06:25:48;;;;;;;16.83;9.50;;;22.40;80.90;;;;;;5926197;29;89485;-70
2022/05/06 06:28:52;;;;;;;16.98;9.50;;;22.40;80.70;;;;;;5930757;29;89138;-68
2022/05/06 06:31:54;;;;;;;14.93;8.43;;;22.40;80.60;;;;;;5934334;29;89141;-69
2022/05/06 06:34:56;;;;;;;15.80;8.80;;;22.50;80.50;;;;;;5918773;29;89224;-69
2022/05/06 06:37:58;;;;;;;14.45;8.35;;;22.40;80.40;;;;;;5926304;29;89484;-69
2022/05/06 06:41:00;;;;;;;13.75;8.48;;;22.50;80.30;;;;;;5916099;29;89071;-70
2022/05/06 06:44:04;;;;;;;15.20;9.00;;;22.40;80.20;;;;;;5905680;29;88648;-69
2022/05/06 06:47:10;;;;;;;14.95;8.90;;;22.50;80.10;;;;;;5913089;29;89489;-69
2022/05/06 06:50:12;;;;;;;10.73;7.70;;;22.50;80.00;;;;;;5918534;29;89380;-69
2022/05/06 06:53:14;;;;;;;12.68;7.82;;;22.50;79.90;;;;;;5916773;29;90493;-69
2022/05/06 06:56:16;;;;;;;12.07;7.68;;;22.50;79.80;;;;;;5910953;29;89114;-69
2022/05/06 06:59:19;;;;;;;11.85;7.57;;;22.50;79.70;;;;;;5937310;29;87917;-69
2022/05/06 07:02:21;;;;;;;11.50;7.40;;;22.50;79.70;;;;;;5924929;29;89229;-69
2022/05/06 07:05:23;;;;;;;12.45;7.40;;;22.50;79.60;;;;;;5930369;29;89228;-68
2022/05/06 07:11:55;;;;;;;12.98;8.02;;;22.50;79.50;;;;;;5914717;29;87242;-69
2022/05/06 07:14:58;;;;;;;9.85;7.15;;;22.50;79.50;;;;;;5921156;29;88334;-69
2022/05/06 07:18:00;;;;;;;10.27;7.15;;;22.50;79.50;;;;;;5919450;29;89139;-69
2022/05/06 07:21:02;;;;;;;9.15;6.97;;;22.50;79.40;;;;;;5921571;29;89501;-69
2022/05/06 07:24:05;;;;;;;9.80;7.05;;;22.50;79.40;;;;;;5917644;29;90080;-69
2022/05/06 07:27:08;;;;;;;10.32;7.18;;;22.50;79.40;;;;;;5923325;29;88208;-69
2022/05/06 07:30:12;;;;;;;9.10;6.80;;;22.50;79.30;;;;;;5937402;29;89180;-70
2022/05/06 07:33:14;;;;;;;9.80;7.40;;;22.50;79.30;;;;;;5919234;29;87391;-69
2022/05/06 07:36:16;;;;;;;10.25;6.50;;;22.50;79.30;;;;;;5932503;29;89471;-69
2022/05/06 07:39:18;;;;;;;9.85;6.68;;;22.50;79.30;;;;;;5911464;29;88034;-69
2022/05/06 07:42:20;;;;;;;9.55;6.35;;;22.50;80.50;;;;;;5904780;29;88051;-69
2022/05/06 07:45:24;;;;;;;9.00;6.68;;;22.50;82.70;;;;;;5914430;29;88716;-69
2022/05/06 07:48:26;;;;;;;11.43;6.68;;;22.60;82.50;;;;;;5921544;29;89047;-69
2022/05/06 07:51:28;;;;;;;9.90;6.68;;;22.60;82.10;;;;;;5932395;29;89099;-70
2022/05/06 07:54:30;;;;;;;10.48;6.80;;;22.60;81.80;;;;;;5926210;29;90076;-69
2022/05/06 07:57:32;;;;;;;7.97;6.05;;;22.70;81.70;;;;;;5930763;29;89153;-69
2022/05/06 08:00:36;;;;;;;8.75;6.32;;;22.70;81.10;;;;;;5925070;29;89069;-70
2022/05/06 08:06:57;;;;;;;8.60;5.75;;;22.70;81.00;;;;;;5927902;29;88085;-69
2022/05/06 08:09:59;;;;;;;9.05;6.30;;;22.70;80.80;;;;;;5924700;29;89028;-69
2022/05/06 08:13:02;;;;;;;9.55;5.95;;;22.70;80.50;;;;;;5924276;29;89094;-69
2022/05/06 08:16:06;;;;;;;8.88;5.70;;;22.70;80.50;;;;;;5925027;29;88425;-70
2022/05/06 08:19:08;;;;;;;7.57;5.90;;;22.70;80.30;;;;;;5925158;29;87081;-70
2022/05/06 08:22:11;;;;;;;11.10;5.93;;;22.70;80.40;;;;;;5928669;29;88994;-69
2022/05/06 08:25:13;;;;;;;7.63;6.10;;;22.70;80.50;;;;;;5924150;29;90194;-69
2022/05/06 08:28:15;;;;;;;8.52;5.80;;;22.70;80.50;;;;;;5925197;29;89161;-69
2022/05/06 08:31:20;;;;;;;7.53;5.82;;;22.70;80.30;;;;;;5923627;29;89077;-70
2022/05/06 08:34:22;;;;;;;7.85;5.80;;;22.70;80.20;;;;;;5921052;29;87849;-69
2022/05/06 08:37:25;;;;;;;8.00;5.80;;;22.70;80.10;;;;;;5924968;29;89475;-69
2022/05/06 08:40:29;;;;;;;8.85;5.35;;;22.70;80.00;;;;;;5908658;29;89087;-69
2022/05/06 08:43:31;;;;;;;6.25;5.43;;;22.70;80.00;;;;;;5908003;29;89474;-68
2022/05/06 08:53:16;;;;;;;7.38;5.80;;;22.60;79.80;;;;;;5924514;29;89171;-69
2022/05/06 08:56:18;;;;;;;6.38;5.70;;;22.60;79.80;;;;;;5928367;29;90079;-69
2022/05/06 08:59:20;;;;;;;7.18;5.30;;;22.60;79.80;;;;;;5902178;29;89637;-69
2022/05/06 09:02:23;;;;;;;6.82;5.78;;;22.60;79.90;;;;;;5914526;29;89124;-69
2022/05/06 09:05:25;;;;;;;7.25;5.20;;;22.60;79.80;;;;;;5917010;29;89354;-69
2022/05/06 09:08:38;;;;;;;7.25;5.63;;;22.60;80.00;;;;;;5909831;29;89192;-69
2022/05/06 09:18:24;;;;;;;7.97;6.00;;;22.60;79.80;;;;;;5924739;29;86681;-69
2022/05/06 09:21:26;;;;;;;7.30;5.57;;;22.60;79.80;;;;;;5908754;29;88044;-70
2022/05/06 09:24:29;;;;;;;8.10;5.45;;;22.60;79.90;;;;;;5911295;29;89152;-69
2022/05/06 09:27:31;;;;;;;10.35;5.43;;;22.60;79.90;;;;;;5922398;29;89973;-69
2022/05/06 09:30:34;;;;;;;8.23;5.55;;;22.60;80.00;;;;;;5928141;29;89440;-69
2022/05/06 09:33:40;;;;;;;7.72;5.03;;;22.60;80.10;;;;;;5912376;29;89398;-68
2022/05/06 09:36:43;;;;;;;7.20;5.28;;;22.60;80.30;;;;;;5923870;29;88762;-69
2022/05/06 09:39:45;;;;;;;8.88;5.53;;;22.60;80.30;;;;;;5923817;29;89041;-69
2022/05/06 09:42:58;;;;;;;9.10;5.68;;;22.60;80.40;;;;;;5915230;29;89126;-68
2022/05/06 09:46:19;;;;;;;8.95;5.82;;;22.60;80.40;;;;;;5902949;29;89038;-69
2022/05/06 09:49:23;;;;;;;6.18;5.50;;;22.60;80.50;;;;;;5921989;29;88868;-68
2022/05/06 09:52:25;;;;;;;8.15;5.78;;;22.60;80.50;;;;;;5930396;29;89108;-69
2022/05/06 09:55:28;;;;;;;6.18;5.57;;;22.60;80.80;;;;;;5919955;29;89123;-69
2022/05/06 09:58:30;;;;;;;7.40;6.10;;;22.50;80.60;;;;;;5930236;29;90348;-69
2022/05/06 10:01:34;;;;;;;6.75;5.53;;;22.60;80.80;;;;;;5920112;29;88541;-69
2022/05/06 10:04:38;;;;;;;6.18;5.57;;;22.60;81.00;;;;;;5931175;29;89139;-69
2022/05/06 10:07:44;;;;;;;6.57;5.82;;;22.50;80.90;;;;;;5922790;29;89136;-69
2022/05/06 10:10:48;;;;;;;6.43;5.78;;;22.50;80.90;;;;;;5912613;29;89128;-69
2022/05/06 10:13:53;;;;;;;6.10;5.50;;;22.60;81.00;;;;;;5925468;29;89498;-69
2022/05/06 10:16:55;;;;;;;6.10;5.47;;;22.50;81.00;;;;;;5930196;29;89133;-69
2022/05/06 10:19:58;;;;;;;6.13;5.53;;;22.60;81.00;;;;;;5928404;29;88682;-69
2022/05/06 10:23:01;;;;;;;6.43;5.70;;;22.60;81.10;;;;;;5922223;29;87991;-68
2022/05/06 10:26:03;;;;;;;6.20;5.60;;;22.50;81.10;;;;;;5930427;29;89337;-70
2022/05/06 10:32:58;;;;;;;6.93;6.18;;;22.50;81.10;;;;;;5926858;29;87336;-69
2022/05/06 10:36:01;;;;;;;6.47;5.88;;;22.50;81.10;;;;;;5928828;29;89332;-68
2022/05/06 10:39:18;;;;;;;8.55;6.30;;;22.50;81.10;;;;;;5921937;29;89035;-68
2022/05/06 10:42:33;;;;;;;6.40;5.82;;;22.50;81.10;;;;;;5920195;29;89174;-68
2022/05/06 10:45:36;;;;;;;6.65;5.95;;;22.50;81.30;;;;;;5917993;29;88351;-69
2022/05/06 10:48:38;;;;;;;7.22;6.53;;;22.50;81.30;;;;;;5930602;29;89134;-69
2022/05/06 10:51:41;;;;;;;6.80;6.10;;;22.50;81.30;;;;;;5930819;29;88445;-69
2022/05/06 10:54:47;;;;;;;6.53;5.90;;;22.50;81.30;;;;;;5912104;29;89122;-68
2022/05/06 10:57:54;;;;;;;6.70;6.18;;;22.50;81.20;;;;;;5934443;29;88869;-68
2022/05/06 11:01:00;;;;;;;7.00;6.03;;;22.50;81.10;;;;;;5914338;29;88071;-68
2022/05/06 11:04:02;;;;;;;7.00;6.47;;;22.50;81.10;;;;;;5922748;29;89094;-69
2022/05/06 11:07:13;;;;;;;7.10;6.50;;;22.50;81.00;;;;;;5918449;29;89419;-69
2022/05/06 11:10:34;;;;;;;6.93;6.32;;;22.50;81.00;;;;;;5918348;29;89123;-70
2022/05/06 11:13:36;;;;;;;8.30;6.68;;;22.50;81.10;;;;;;5922903;29;89178;-67
2022/05/06 11:16:39;;;;;;;6.93;6.32;;;22.50;81.40;;;;;;5909945;29;89163;-69
2022/05/06 11:19:41;;;;;;;6.75;6.15;;;22.50;81.30;;;;;;5925988;29;89244;-69
2022/05/06 11:22:51;;;;;;;8.77;6.28;;;22.50;81.30;;;;;;5924142;29;88428;-68
2022/05/06 11:25:55;;;;;;;6.90;6.30;;;22.50;82.30;;;;;;5901325;29;88028;-68
2022/05/06 11:29:02;;;;;;;7.75;6.75;;;22.50;82.20;;;;;;5914828;29;89092;-69
2022/05/06 11:32:07;;;;;;;6.93;6.30;;;22.50;82.00;;;;;;5922828;29;89216;-67
2022/05/06 11:35:11;;;;;;;7.03;6.35;;;22.60;81.80;;;;;;5922632;29;89187;-66
2022/05/06 11:38:15;;;;;;;6.88;6.28;;;22.60;81.70;;;;;;5903575;29;89439;-66
2022/05/06 11:41:18;;;;;;;6.90;6.30;;;22.60;81.60;;;;;;5900771;29;89062;-67
2022/05/06 11:47:27;;;;;;;7.20;6.57;;;22.60;81.60;;;;;;5901270;29;89252;-68
2022/05/06 11:47:49;;;;;;;7.28;6.57;;;22.60;81.60;;;;;;5902683;29;88597;-67
2022/05/06 11:50:56;;;;;;;6.80;6.25;;;22.60;82.00;;;;;;5902919;29;88330;-67
2022/05/06 11:54:00;;;;;;;6.72;6.18;;;22.60;81.60;;;;;;5905072;29;88296;-67
2022/05/06 11:57:02;;;;;;;6.70;6.20;;;22.60;81.60;;;;;;5908639;29;89196;-68
2022/05/06 12:00:06;;;;;;;6.93;6.22;;;22.60;81.60;;;;;;5907153;29;89090;-66
2022/05/06 12:03:09;;;;;;;6.90;6.38;;;22.70;81.60;;;;;;5903674;29;90019;-67
2022/05/06 12:06:11;;;;;;;6.68;6.07;;;22.70;81.60;;;;;;5908766;29;89106;-66
2022/05/06 12:09:16;;;;;;;6.68;6.18;;;22.60;81.60;;;;;;5901834;29;89104;-67
2022/05/06 12:12:19;;;;;;;6.82;6.10;;;22.70;81.70;;;;;;5906284;29;89191;-68
2022/05/06 12:15:21;;;;;;;7.00;6.40;;;22.70;81.60;;;;;;5900325;29;89109;-67
2022/05/06 12:18:24;;;;;;;6.40;5.82;;;22.70;81.60;;;;;;5910796;29;89352;-69
2022/05/06 12:21:27;;;;;;;6.65;6.05;;;22.70;81.60;;;;;;5899366;29;88311;-68
2022/05/06 12:24:40;;;;;;;6.60;6.03;;;22.70;81.50;;;;;;5911089;29;86955;-68
2022/05/06 12:27:42;;;;;;;6.18;5.68;;;22.70;81.50;;;;;;5922617;29;89077;-68
2022/05/06 12:30:45;;;;;;;7.10;6.40;;;22.70;81.20;;;;;;5932329;29;89182;-68
2022/05/06 12:33:47;;;;;;;6.65;6.05;;;22.70;81.20;;;;;;5902756;29;90073;-68
2022/05/06 12:36:49;;;;;;;6.63;6.07;;;22.70;81.30;;;;;;5899886;29;89068;-67
2022/05/06 12:39:59;;;;;;;6.68;6.07;;;22.70;81.20;;;;;;5903684;29;89085;-69
2022/05/06 12:43:05;;;;;;;6.70;6.00;;;22.70;81.20;;;;;;5921597;29;89082;-68
2022/05/06 12:46:07;;;;;;;6.28;5.78;;;22.70;81.20;;;;;;5909608;29;89295;-68
2022/05/06 12:52:31;;;;;;;6.57;6.03;;;22.70;81.10;;;;;;5902186;29;87247;-70
2022/05/06 12:55:34;;;;;;;6.75;6.15;;;22.70;81.10;;;;;;5918357;29;87571;-69
2022/05/06 12:58:36;;;;;;;6.50;6.00;;;22.70;81.10;;;;;;5908487;29;89029;-69
2022/05/06 13:01:39;;;;;;;6.57;6.07;;;22.70;81.10;;;;;;5911459;29;87887;-69
2022/05/06 13:04:41;;;;;;;6.50;6.00;;;22.80;81.20;;;;;;5909271;29;90205;-67
2022/05/06 13:07:43;;;;;;;6.63;6.00;;;22.80;81.60;;;;;;5910782;29;89106;-69
2022/05/06 13:10:46;;;;;;;6.97;6.35;;;22.70;81.40;;;;;;5914844;29;89374;-68
2022/05/06 13:13:48;;;;;;;6.90;6.30;;;22.80;81.20;;;;;;5919337;29;89335;-68
2022/05/06 13:16:51;;;;;;;7.22;6.63;;;22.70;82.10;;;;;;5905155;29;89175;-68
2022/05/06 13:19:53;;;;;;;6.60;6.00;;;22.80;81.30;;;;;;5909620;29;89140;-69
2022/05/06 13:22:55;;;;;;;6.72;6.22;;;22.80;81.10;;;;;;5909859;29;89166;-69
2022/05/06 13:25:59;;;;;;;6.57;5.97;;;22.80;80.90;;;;;;5909199;29;88390;-68
2022/05/06 13:29:01;;;;;;;7.05;6.45;;;22.80;80.80;;;;;;5925763;29;89020;-69
2022/05/06 13:32:03;;;;;;;7.22;6.63;;;22.80;80.80;;;;;;5925270;29;89394;-69
2022/05/06 13:35:06;;;;;;;8.65;7.93;;;22.80;81.00;;;;;;5921047;29;90154;-69
2022/05/06 13:38:08;;;;;;;8.55;7.75;;;22.80;80.80;;;;;;5916671;29;89321;-68
2022/05/06 13:41:11;;;;;;;10.00;8.73;;;22.80;80.80;;;;;;5920176;29;89149;-68
2022/05/06 13:44:13;;;;;;;9.90;8.90;;;22.80;81.30;;;;;;5909256;29;89329;-69
2022/05/06 13:47:15;;;;;;;8.88;8.15;;;22.80;81.90;;;;;;5904705;29;88011;-68
2022/05/06 13:50:17;;;;;;;8.82;8.02;;;22.70;82.00;;;;;;5913677;29;89047;-69
2022/05/06 13:53:19;;;;;;;10.65;9.05;;;22.70;82.10;;;;;;5918903;29;89118;-70
2022/05/06 13:59:42;;;;;;;9.07;8.38;;;22.80;83.10;;;;;;5915986;29;87225;-71
2022/05/06 14:02:44;;;;;;;9.70;8.65;;;22.70;83.20;;;;;;5904734;29;89097;-71
2022/05/06 14:05:47;;;;;;;9.82;8.98;;;22.80;84.50;;;;;;5903193;29;91683;-70
2022/05/06 14:12:11;;;;;;;9.38;8.07;;;22.70;85.00;;;;;;5920552;29;88036;-68
2022/05/06 14:15:13;;;;;;;10.40;9.32;;;22.70;85.00;;;;;;5917905;29;87993;-69
2022/05/06 14:18:15;;;;;;;9.88;9.00;;;22.70;86.70;;;;;;5904180;29;89133;-69
2022/05/06 14:21:17;;;;;;;9.65;8.65;;;22.70;84.60;;;;;;5908120;29;88017;-70
2022/05/06 14:24:19;;;;;;;9.25;8.35;;;22.70;84.40;;;;;;5903698;29;89435;-69
2022/05/06 14:27:22;;;;;;;9.65;8.63;;;22.60;84.10;;;;;;5911136;29;88287;-69
2022/05/06 14:30:25;;;;;;;9.75;8.75;;;22.60;85.90;;;;;;5930150;29;89282;-70
2022/05/06 14:33:27;;;;;;;8.30;7.50;;;22.60;86.40;;;;;;5912878;29;87991;-69
2022/05/06 14:36:29;;;;;;;8.35;7.55;;;22.50;85.90;;;;;;5924648;29;90049;-71
2022/05/06 14:39:31;;;;;;;9.18;6.90;;;22.50;85.50;;;;;;5903235;29;89157;-71
2022/05/06 14:42:34;;;;;;;7.53;6.22;;;22.60;85.40;;;;;;5914126;29;88911;-71
2022/05/06 14:45:37;;;;;;;9.88;7.15;;;22.60;85.50;;;;;;5905210;29;89020;-69
2022/05/06 14:48:39;;;;;;;8.77;6.28;;;22.60;85.40;;;;;;5910498;29;89147;-69
2022/05/06 14:51:41;;;;;;;7.90;6.20;;;22.60;85.20;;;;;;5909780;29;89157;-67
2022/05/06 14:54:42;;;;;;;7.28;6.57;;;22.60;84.60;;;;;;5917875;29;89052;-72
2022/05/06 14:57:46;;;;;;;6.93;6.25;;;22.60;85.20;;;;;;5915027;29;88481;-76
2022/05/06 15:00:48;;;;;;;11.43;6.95;;;22.60;85.10;;;;;;5910519;29;89426;-73
2022/05/06 15:03:50;;;;;;;10.93;6.93;;;22.60;85.20;;;;;;5907979;29;89105;-71
2022/05/06 15:06:52;;;;;;;10.77;7.80;;;22.70;90.30;;;;;;5930698;29;90044;-71
2022/05/06 15:09:54;;;;;;;8.10;6.78;;;22.70;90.10;;;;;;5926269;29;89191;-72
2022/05/06 15:12:57;;;;;;;13.43;6.75;;;22.70;90.20;;;;;;5915464;29;88002;-73
2022/05/06 15:16:00;;;;;;;7.65;6.47;;;22.80;90.00;;;;;;5921615;29;89249;-70
2022/05/06 15:22:21;;;;;;;9.27;7.53;;;22.90;90.20;;;;;;5911616;29;87405;-75
2022/05/06 15:25:24;;;;;;;8.07;7.18;;;22.90;91.60;;;;;;5907664;29;89220;-73
2022/05/06 15:28:27;;;;;;;9.57;7.22;;;22.90;91.40;;;;;;5912097;29;88361;-71
2022/05/06 15:31:29;;;;;;;8.43;7.63;;;22.90;91.40;;;;;;5910104;29;89102;-73
2022/05/06 15:34:32;;;;;;;10.13;7.35;;;23.00;91.60;;;;;;5907095;29;88984;-73
2022/05/06 15:37:34;;;;;;;8.35;7.65;;;23.00;91.10;;;;;;5906917;29;90069;-73
2022/05/06 15:40:36;;;;;;;9.02;8.13;;;23.00;91.10;;;;;;5909198;29;89131;-72
2022/05/06 15:43:39;;;;;;;8.65;7.75;;;23.10;90.40;;;;;;5915614;29;88949;-72
2022/05/06 15:46:41;;;;;;;10.00;7.78;;;23.10;90.00;;;;;;5917376;29;89135;-73
2022/05/06 15:49:43;;;;;;;10.70;7.22;;;23.10;90.60;;;;;;5920932;29;89096;-73
2022/05/06 15:52:45;;;;;;;10.02;7.97;;;23.20;90.40;;;;;;5925847;29;89458;-70
2022/05/06 15:55:48;;;;;;;8.50;7.60;;;23.20;89.70;;;;;;5924540;29;88981;-72
2022/05/06 15:58:52;;;;;;;14.43;8.30;;;23.20;89.80;;;;;;5918590;29;88546;-71
2022/05/06 16:01:54;;;;;;;8.50;7.53;;;23.30;90.50;;;;;;5904083;29;89161;-73
2022/05/06 16:04:56;;;;;;;9.48;7.43;;;23.30;89.60;;;;;;5912377;29;89240;-72
2022/05/06 16:07:58;;;;;;;9.32;7.78;;;23.30;89.80;;;;;;5909696;29;90407;-71
2022/05/06 16:11:00;;;;;;;10.57;8.25;;;23.30;89.10;;;;;;5902394;29;89072;-71
2022/05/06 16:14:03;;;;;;;10.32;8.10;;;23.30;89.90;;;;;;5925256;29;89443;-71
2022/05/06 16:17:06;;;;;;;7.95;7.28;;;23.40;89.40;;;;;;5924403;29;89186;-70
2022/05/06 16:20:09;;;;;;;8.70;7.85;;;23.40;88.70;;;;;;5914200;29;89094;-71
2022/05/06 16:23:11;;;;;;;8.38;7.57;;;23.40;87.50;;;;;;5912666;29;89614;-74
2022/05/06 16:26:13;;;;;;;8.80;7.97;;;23.40;87.10;;;;;;5921245;29;87999;-74
2022/05/06 16:29:17;;;;;;;8.95;8.02;;;23.40;87.70;;;;;;5919203;29;88351;-72
2022/05/06 16:32:19;;;;;;;12.40;11.10;;;23.40;88.20;;;;;;5928863;29;88012;-71
2022/05/06 16:38:45;;;;;;;11.13;10.07;;;23.60;86.60;;;;;;5923169;29;90101;-71
2022/05/06 16:41:47;;;;;;;9.90;9.05;;;23.70;85.70;;;;;;5904755;29;87909;-71